Terminal Aerodrome Forecast
Issued by NWS

Home | Current Version | Previous Version | Text Only | Print | Product List | Glossary On
Versions: 1 2 3 4 5 6 7 8 9 10 11 12 13
000
FTUS46 KEKA 261723
TAFUKI
TAF
KUKI 261723Z 2618/2718 VRB06KT P6SM SKC
     FM262100 16005KT P6SM SKC
     FM270000 VRB06KT P6SM SKC
     FM270500 00000KT P6SM SKC=

USA.gov is the U.S. government's official web portal to all federal, state and local government web resources and services.